Time;durP1;ratioP1;P1;durP2;ratioP2;P2;SDS_P1;SDS_P2;PMS_P1;PMS_P2;Temp;Humidity;BMP_temperature;BMP_pressure;BME280_temperature;BME280_humidity;BME280_pressure;Samples;Min_cycle;Max_cycle;Signal;HPM_P1;HPM_P2
2021/09/21 00:00:30;;;;;;;5.03;4.00;;;;;;;20.82;48.02;99723.81;5051603;28;20029;-37
2021/09/21 00:02:56;;;;;;;6.47;4.20;;;;;;;20.78;47.77;99733.56;5051583;28;20032;-37
2021/09/21 00:05:21;;;;;;;7.43;4.35;;;;;;;20.72;47.45;99734.66;5051542;28;20048;-37
2021/09/21 00:07:47;;;;;;;5.65;4.15;;;;;;;20.28;48.32;99744.84;5051708;28;20031;-37
2021/09/21 00:10:12;;;;;;;6.43;4.05;;;;;;;20.05;48.79;99740.75;5051778;28;20095;-37
2021/09/21 00:12:38;;;;;;;6.85;4.25;;;;;;;20.15;48.25;99739.16;5051113;28;20149;-37
2021/09/21 00:15:04;;;;;;;5.90;4.30;;;;;;;20.51;47.41;99742.72;5051856;28;20459;-37
2021/09/21 00:17:30;;;;;;;5.85;4.13;;;;;;;20.56;47.16;99740.03;5051322;28;20045;-37
2021/09/21 00:19:55;;;;;;;5.57;4.22;;;;;;;20.41;47.18;99734.59;5051296;28;20048;-37
2021/09/21 00:22:21;;;;;;;6.57;4.25;;;;;;;20.34;47.54;99736.75;5051529;28;20028;-37
2021/09/21 00:24:46;;;;;;;5.03;4.20;;;;;;;20.24;47.88;99734.84;5051573;28;20465;-37
2021/09/21 00:27:12;;;;;;;6.18;5.00;;;;;;;20.17;47.54;99737.81;5051195;28;20032;-37
2021/09/21 00:29:37;;;;;;;10.20;8.40;;;;;;;20.33;47.67;99740.53;5051417;28;20049;-37
2021/09/21 00:32:03;;;;;;;7.18;4.82;;;;;;;19.98;48.17;99731.28;5051226;28;20517;-37
2021/09/21 00:34:37;;;;;;;6.90;4.30;;;;;;;20.29;47.34;99741.06;5051271;28;20214;-37
2021/09/21 00:37:04;;;;;;;6.20;4.53;;;;;;;20.28;47.54;99741.34;5049648;28;20029;-37
2021/09/21 00:39:30;;;;;;;5.15;4.47;;;;;;;20.62;46.51;99744.38;5050877;28;20055;-37
2021/09/21 00:41:56;;;;;;;5.63;4.60;;;;;;;20.22;47.28;99737.00;5050855;28;20029;-37
2021/09/21 00:44:21;;;;;;;5.70;4.40;;;;;;;20.01;47.56;99731.56;5051052;28;20111;-37
2021/09/21 00:46:47;;;;;;;5.00;4.30;;;;;;;19.76;48.25;99734.97;5050770;28;20029;-37
2021/09/21 00:49:13;;;;;;;6.00;4.43;;;;;;;19.91;48.07;99735.06;5050795;28;20036;-37
2021/09/21 00:51:38;;;;;;;6.15;4.68;;;;;;;20.16;47.81;99730.75;5050249;28;20166;-37
2021/09/21 00:54:04;;;;;;;5.35;4.68;;;;;;;20.12;47.43;99735.09;5050333;28;20009;-37
2021/09/21 00:56:29;;;;;;;6.72;4.82;;;;;;;19.86;48.17;99736.94;5050610;28;20051;-37
2021/09/21 00:58:55;;;;;;;5.93;4.30;;;;;;;20.21;47.44;99741.59;5050707;28;20455;-37
2021/09/21 01:01:20;;;;;;;5.50;4.30;;;;;;;19.81;47.70;99732.31;5050814;28;20028;-37
2021/09/21 01:03:46;;;;;;;5.93;4.65;;;;;;;19.88;47.57;99737.47;5050654;28;20506;-37
2021/09/21 01:06:11;;;;;;;7.47;4.53;;;;;;;20.02;47.05;99745.88;5050594;28;20025;-37
2021/09/21 01:08:39;;;;;;;5.55;4.57;;;;;;;20.01;47.15;99746.94;5050489;28;20032;-36
2021/09/21 01:11:04;;;;;;;5.38;4.35;;;;;;;19.85;47.23;99751.47;5050692;28;20131;-36
2021/09/21 01:13:29;;;;;;;5.00;4.18;;;;;;;20.14;46.45;99759.13;5050193;28;20148;-37
2021/09/21 01:15:55;;;;;;;6.05;4.75;;;;;;;19.87;47.65;99760.13;5050598;28;20544;-36
2021/09/21 01:18:20;;;;;;;6.80;4.60;;;;;;;19.41;48.19;99751.81;5050462;28;20036;-36
2021/09/21 01:20:46;;;;;;;6.38;4.50;;;;;;;20.07;47.78;99757.50;5050119;28;20025;-36
2021/09/21 01:23:11;;;;;;;6.60;4.78;;;;;;;20.09;46.36;99760.75;5050363;28;20051;-37
2021/09/21 01:25:37;;;;;;;6.78;4.72;;;;;;;20.03;47.30;99767.22;5050270;28;20028;-36
2021/09/21 01:28:03;;;;;;;6.38;4.70;;;;;;;19.70;47.09;99771.09;5050324;28;20354;-37
2021/09/21 01:30:28;;;;;;;5.68;4.55;;;;;;;19.43;47.31;99763.94;5048835;28;20051;-37
2021/09/21 01:32:53;;;;;;;5.53;4.50;;;;;;;19.64;47.01;99759.47;5050328;28;20025;-36
2021/09/21 01:35:19;;;;;;;6.25;4.63;;;;;;;19.84;46.49;99764.19;5050241;28;20013;-37
2021/09/21 01:37:48;;;;;;;5.38;4.30;;;;;;;19.92;46.03;99765.56;5050222;28;20409;-37
2021/09/21 01:40:14;;;;;;;7.38;4.70;;;;;;;19.51;47.01;99765.34;5050664;28;20021;-37
2021/09/21 01:42:44;;;;;;;6.00;4.60;;;;;;;19.78;46.53;99767.09;5049810;28;20028;-36
2021/09/21 01:45:10;;;;;;;5.43;4.55;;;;;;;19.65;47.27;99768.41;5049968;28;20021;-37
2021/09/21 01:47:35;;;;;;;5.70;4.80;;;;;;;20.03;46.69;99769.91;5050269;28;20021;-37
2021/09/21 01:51:04;;;;;;;6.53;4.70;;;;;;;20.13;45.86;99769.13;5048760;28;20035;-37
2021/09/21 01:53:01;;;;;;;5.65;4.70;;;;;;;20.31;45.95;99765.94;5040036;28;20412;-36
2021/09/21 02:00:52;;;;;;;8.75;4.78;;;;;;;19.83;45.67;99772.53;5030008;28;19931;-36
2021/09/21 02:03:17;;;;;;;6.35;4.55;;;;;;;19.71;46.28;99778.94;5031130;28;20029;-36
2021/09/21 02:05:43;;;;;;;6.07;4.63;;;;;;;19.39;47.13;99768.25;5033919;28;20026;-37
2021/09/21 02:08:08;;;;;;;6.85;4.43;;;;;;;19.30;47.09;99786.78;5034211;28;20485;-37
2021/09/21 02:10:34;;;;;;;5.53;4.63;;;;;;;19.31;47.35;99783.03;5033859;28;20114;-37
2021/09/21 02:12:59;;;;;;;7.65;5.18;;;;;;;19.31;47.35;99799.22;5033505;28;20057;-37
2021/09/21 02:15:24;;;;;;;6.78;4.45;;;;;;;19.76;46.87;99797.06;5033619;28;20022;-37
2021/09/21 02:17:50;;;;;;;5.82;4.57;;;;;;;19.72;46.91;99793.28;5049052;28;20029;-36
2021/09/21 02:20:15;;;;;;;6.43;4.55;;;;;;;19.35;47.94;99794.13;5043358;28;20029;-36
2021/09/21 02:22:41;;;;;;;7.55;4.43;;;;;;;19.11;48.84;99794.53;5053443;28;20039;-37
2021/09/21 02:25:07;;;;;;;6.45;5.00;;;;;;;18.75;49.48;99769.94;5054031;28;20028;-37
2021/09/21 02:27:32;;;;;;;7.10;4.70;;;;;;;18.83;49.47;99803.72;5053515;28;20031;-38
2021/09/21 02:29:58;;;;;;;6.07;4.72;;;;;;;18.63;49.80;99798.09;5053578;28;20048;-37
2021/09/21 02:32:23;;;;;;;5.65;4.40;;;;;;;18.85;49.44;99798.88;5053462;28;20024;-37
2021/09/21 02:34:49;;;;;;;7.10;4.65;;;;;;;18.75;49.17;99801.44;5053350;28;20032;-37
2021/09/21 02:37:15;;;;;;;5.93;4.47;;;;;;;18.59;49.61;99799.69;5053397;28;20024;-38
2021/09/21 02:39:41;;;;;;;7.38;4.57;;;;;;;18.74;49.70;99792.56;5053316;28;20100;-37
2021/09/21 02:42:06;;;;;;;8.50;4.35;;;;;;;18.92;48.46;99785.19;5053077;28;20327;-37
2021/09/21 02:44:33;;;;;;;7.95;4.70;;;;;;;18.61;49.49;99792.97;5053128;28;20177;-37
2021/09/21 02:46:59;;;;;;;5.45;4.45;;;;;;;18.36;49.78;99793.53;5053353;28;20041;-38
2021/09/21 02:49:25;;;;;;;6.70;4.78;;;;;;;18.56;49.64;99785.66;5053372;28;20035;-35
2021/09/21 02:51:50;;;;;;;5.93;4.70;;;;;;;18.48;49.65;99790.69;5053297;28;20349;-37
2021/09/21 02:54:16;;;;;;;5.30;4.60;;;;;;;18.39;49.74;99797.59;5053285;28;20024;-37
2021/09/21 02:56:41;;;;;;;7.13;4.90;;;;;;;18.47;49.53;99805.25;5052885;28;20461;-37
2021/09/21 02:59:07;;;;;;;6.47;4.65;;;;;;;18.48;49.41;99802.28;5053196;28;20025;-37
2021/09/21 03:01:32;;;;;;;7.90;4.85;;;;;;;18.49;49.03;99820.06;5052971;28;20033;-37
2021/09/21 03:04:02;;;;;;;6.85;4.75;;;;;;;18.26;49.87;99809.56;5053016;28;20408;-37
2021/09/21 03:06:32;;;;;;;7.25;4.82;;;;;;;18.46;49.54;99817.06;5053002;28;20116;-36
2021/09/21 03:09:16;;;;;;;6.20;4.80;;;;;;;18.28;50.17;99823.63;5052720;28;20032;-36
2021/09/21 03:11:49;;;;;;;6.22;4.90;;;;;;;18.46;49.14;99828.66;5052681;28;20414;-36
2021/09/21 03:17:08;;;;;;;7.10;4.80;;;;;;;18.40;48.86;99826.19;5052152;28;20056;-36
2021/09/21 03:17:25;;;;;;;6.28;4.90;;;;;;;18.24;49.72;99828.69;5052385;28;20178;-36
2021/09/21 03:19:51;;;;;;;9.50;5.32;;;;;;;18.12;49.97;99833.38;5052064;28;20091;-36
2021/09/21 03:22:16;;;;;;;8.82;5.28;;;;;;;18.25;49.62;99835.69;5052610;28;20029;-36
2021/09/21 03:24:42;;;;;;;10.55;5.40;;;;;;;18.56;49.69;99836.03;5053272;28;20141;-36
2021/09/21 03:27:07;;;;;;;6.65;4.95;;;;;;;18.39;48.93;99830.75;5052223;28;20021;-36
2021/09/21 03:29:33;;;;;;;8.65;5.82;;;;;;;18.30;49.40;99841.16;5051417;28;20036;-36
2021/09/21 03:31:58;;;;;;;7.88;5.05;;;;;;;18.05;49.83;99830.91;5052520;28;20025;-36
2021/09/21 03:34:24;;;;;;;7.50;5.68;;;;;;;18.16;49.79;99823.75;5052123;28;20346;-36
2021/09/21 03:36:49;;;;;;;8.02;5.97;;;;;;;17.87;50.87;99828.50;5051753;28;20090;-36
2021/09/21 03:39:15;;;;;;;20.55;11.98;;;;;;;18.05;50.27;99832.75;5052429;28;20032;-36
2021/09/21 03:41:40;;;;;;;12.18;8.10;;;;;;;18.02;50.32;99827.88;5051783;28;20051;-36
2021/09/21 03:44:06;;;;;;;11.55;7.75;;;;;;;18.02;50.09;99838.66;5050229;28;20025;-38
2021/09/21 03:46:31;;;;;;;40.85;25.67;;;;;;;17.87;50.63;99829.31;5050313;28;20021;-36
2021/09/21 03:48:57;;;;;;;8.60;6.38;;;;;;;18.24;49.80;99836.78;5050392;28;20032;-36
2021/09/21 03:51:23;;;;;;;9.32;5.40;;;;;;;18.15;50.11;99846.38;5050399;28;20523;-36
2021/09/21 03:53:48;;;;;;;7.57;6.07;;;;;;;17.98;50.27;99846.41;5050190;28;20078;-36
2021/09/21 03:56:14;;;;;;;6.97;5.60;;;;;;;17.90;50.45;99836.91;5050430;28;20028;-37
2021/09/21 03:58:39;;;;;;;8.95;5.45;;;;;;;18.16;50.10;99847.97;5051088;28;20477;-37
2021/09/21 04:01:05;;;;;;;9.25;5.05;;;;;;;17.88;51.07;99844.41;5051692;28;20021;-37
2021/09/21 04:03:30;;;;;;;7.40;5.20;;;;;;;18.06;50.29;99854.06;5051540;28;20024;-36
2021/09/21 04:05:56;;;;;;;6.22;4.82;;;;;;;17.67;52.01;99864.81;5051422;28;20025;-36
2021/09/21 04:08:21;;;;;;;7.43;5.50;;;;;;;17.63;52.02;99865.53;5051481;28;20021;-36
2021/09/21 04:10:46;;;;;;;14.43;10.45;;;;;;;17.82;51.43;99868.78;5051885;28;20033;-36
2021/09/21 04:13:12;;;;;;;9.38;6.72;;;;;;;18.12;51.09;99874.59;5051127;28;20048;-36
2021/09/21 04:15:37;;;;;;;17.33;11.27;;;;;;;18.10;50.96;99870.53;5051226;28;20047;-36
2021/09/21 04:18:05;;;;;;;9.00;5.95;;;;;;;17.72;51.36;99881.03;5051146;28;20025;-36
2021/09/21 04:20:31;;;;;;;8.88;5.13;;;;;;;17.79;51.59;99886.25;5051229;28;20396;-37
2021/09/21 04:22:56;;;;;;;8.02;5.10;;;;;;;17.82;51.42;99888.44;5049734;28;20021;-37
2021/09/21 04:25:22;;;;;;;13.20;5.47;;;;;;;17.78;51.58;99892.69;5050946;28;20036;-37
2021/09/21 04:27:48;;;;;;;8.32;5.45;;;;;;;18.01;51.09;99883.63;5050767;28;20070;-37
2021/09/21 04:30:18;;;;;;;6.88;5.20;;;;;;;17.91;51.05;99891.53;5049770;28;20036;-38
2021/09/21 04:32:44;;;;;;;8.57;5.45;;;;;;;17.88;51.18;99895.56;5051108;28;20083;-38
2021/09/21 04:35:09;;;;;;;8.52;6.00;;;;;;;18.29;50.38;99890.69;5049401;28;20108;-37
2021/09/21 04:37:35;;;;;;;8.98;5.72;;;;;;;18.19;50.65;99898.66;5049631;28;20037;-37
2021/09/21 04:40:00;;;;;;;8.10;5.30;;;;;;;18.16;50.50;99894.59;5050587;28;20052;-37
2021/09/21 04:42:26;;;;;;;7.38;5.55;;;;;;;18.20;51.09;99908.38;5049001;28;20040;-37
2021/09/21 04:44:52;;;;;;;7.55;5.43;;;;;;;18.71;49.42;99913.53;5037860;28;20464;-37
2021/09/21 04:47:17;;;;;;;10.48;5.30;;;;;;;18.86;48.96;99905.63;5030764;28;20083;-37
2021/09/21 04:49:42;;;;;;;7.65;5.53;;;;;;;19.13;47.95;99899.44;5030752;28;20036;-36
2021/09/21 04:52:08;;;;;;;7.28;5.05;;;;;;;19.22;47.65;99887.09;5030829;28;20528;-36
2021/09/21 04:54:33;;;;;;;8.02;5.15;;;;;;;19.26;47.70;99907.09;5043650;28;20051;-37
2021/09/21 04:56:59;;;;;;;10.15;5.43;;;;;;;19.00;48.28;99908.75;5049470;28;20372;-38
2021/09/21 04:59:26;;;;;;;9.38;5.45;;;;;;;19.03;48.25;99907.44;5050049;28;20024;-36
2021/09/21 05:01:52;;;;;;;9.55;5.25;;;;;;;19.45;47.46;99918.31;5050239;28;20434;-36
2021/09/21 05:04:17;;;;;;;6.53;4.93;;;;;;;19.86;46.26;99910.53;5049846;28;20024;-37
2021/09/21 05:06:43;;;;;;;8.38;5.80;;;;;;;20.13;45.89;99922.31;5048323;28;20041;-37
2021/09/21 05:09:12;;;;;;;6.63;4.70;;;;;;;19.52;46.41;99924.31;5048292;28;20025;-37
2021/09/21 05:11:38;;;;;;;8.45;4.78;;;;;;;19.42;46.71;99908.06;5048055;28;20043;-37
2021/09/21 05:14:03;;;;;;;8.10;4.55;;;;;;;19.94;45.43;99932.75;5046620;28;20049;-37
2021/09/21 05:16:29;;;;;;;7.85;4.80;;;;;;;20.12;45.24;99937.69;5048532;28;20029;-37
2021/09/21 05:18:55;;;;;;;7.43;4.72;;;;;;;20.36;44.68;99943.47;5048038;28;20071;-37
2021/09/21 05:21:20;;;;;;;6.40;4.57;;;;;;;20.09;44.28;99939.03;5048994;28;20028;-37
2021/09/21 05:23:46;;;;;;;5.97;4.57;;;;;;;19.99;44.84;99936.28;5049967;28;20036;-37
2021/09/21 05:26:11;;;;;;;7.47;4.70;;;;;;;20.23;44.10;99952.88;5049714;28;20071;-37
2021/09/21 05:28:37;;;;;;;6.88;4.75;;;;;;;19.73;45.25;99940.69;5049805;28;20504;-37
2021/09/21 05:31:02;;;;;;;8.32;5.47;;;;;;;19.65;45.13;99946.56;5049922;28;20035;-37
2021/09/21 05:33:28;;;;;;;8.48;5.60;;;;;;;19.49;45.85;99940.19;5049725;28;20492;-37
2021/09/21 05:35:53;;;;;;;10.32;5.05;;;;;;;19.61;45.83;99959.75;5049945;28;20020;-37
2021/09/21 05:38:19;;;;;;;8.63;5.15;;;;;;;19.47;46.08;99943.16;5049227;28;20032;-37
2021/09/21 05:40:44;;;;;;;6.43;4.80;;;;;;;19.32;46.23;99941.16;5049555;28;20120;-37
2021/09/21 05:43:10;;;;;;;8.48;4.78;;;;;;;19.20;46.50;99948.59;5049792;28;20025;-37
2021/09/21 05:45:35;;;;;;;8.50;5.20;;;;;;;19.34;46.46;99944.41;5048014;28;20017;-37
2021/09/21 05:48:01;;;;;;;8.13;4.65;;;;;;;19.59;46.10;99944.84;5048816;28;20024;-37
2021/09/21 05:50:26;;;;;;;6.68;5.25;;;;;;;19.92;44.99;99944.59;5049502;28;20076;-37
2021/09/21 05:52:52;;;;;;;7.03;5.50;;;;;;;19.76;45.35;99945.56;5049576;28;20021;-37
2021/09/21 05:55:17;;;;;;;8.15;4.72;;;;;;;19.78;45.55;99948.00;5049863;28;20029;-37
2021/09/21 05:57:44;;;;;;;9.63;4.90;;;;;;;19.76;44.88;99947.44;5049815;28;20104;-37
2021/09/21 06:00:10;;;;;;;30.25;20.58;;;;;;;19.71;45.40;99945.50;5049643;28;20025;-38
2021/09/21 06:02:36;;;;;;;7.07;4.50;;;;;;;20.09;44.52;99947.13;5049188;28;20028;-36
2021/09/21 06:05:01;;;;;;;6.43;4.65;;;;;;;19.76;44.99;99939.34;5050055;28;20025;-37
2021/09/21 06:07:27;;;;;;;7.53;4.80;;;;;;;19.49;45.68;99943.69;5049752;28;20055;-37
2021/09/21 06:09:52;;;;;;;9.40;5.25;;;;;;;19.82;45.15;99947.25;5049908;28;20029;-37
2021/09/21 06:12:18;;;;;;;14.85;9.55;;;;;;;20.02;44.91;99954.66;5049569;28;20044;-37
2021/09/21 06:14:43;;;;;;;6.00;4.78;;;;;;;19.85;44.42;99959.41;5049838;28;20045;-37
2021/09/21 06:17:09;;;;;;;16.30;7.90;;;;;;;19.88;44.87;99957.00;5049703;28;20409;-37
2021/09/21 06:19:34;;;;;;;8.50;5.03;;;;;;;19.94;44.57;99957.84;5049861;28;20021;-37
2021/09/21 06:22:00;;;;;;;6.47;4.95;;;;;;;19.42;45.30;99955.78;5049720;28;20032;-37
2021/09/21 06:24:25;;;;;;;7.18;4.70;;;;;;;19.50;45.11;99945.34;5049797;28;20032;-37
2021/09/21 06:26:51;;;;;;;5.78;4.65;;;;;;;19.56;44.87;99950.78;5049727;28;20094;-37
2021/09/21 06:29:16;;;;;;;9.23;4.80;;;;;;;19.31;45.72;99954.91;5049363;28;20426;-37
2021/09/21 06:31:42;;;;;;;14.80;9.50;;;;;;;19.66;45.19;99948.97;5049375;28;20036;-37
2021/09/21 06:34:08;;;;;;;6.53;5.10;;;;;;;20.04;44.44;99957.91;5049559;28;20031;-37
2021/09/21 06:36:33;;;;;;;5.88;4.47;;;;;;;19.98;44.36;99953.53;5049636;28;20021;-37
2021/09/21 06:38:59;;;;;;;7.03;5.00;;;;;;;19.66;44.47;99970.56;5049290;28;20032;-37
2021/09/21 06:41:24;;;;;;;10.60;5.10;;;;;;;19.12;45.30;99978.72;5049363;28;20378;-37
2021/09/21 06:43:50;;;;;;;14.88;9.70;;;;;;;19.42;45.21;99978.22;5049484;28;20033;-37
2021/09/21 06:46:15;;;;;;;7.03;4.78;;;;;;;19.19;45.32;99983.91;5049526;28;20087;-37
2021/09/21 06:48:41;;;;;;;9.48;4.78;;;;;;;19.43;44.80;99974.41;5049417;28;20029;-37
2021/09/21 06:51:07;;;;;;;15.65;9.57;;;;;;;19.50;44.82;99982.31;5050924;28;20052;-37
2021/09/21 06:53:32;;;;;;;8.43;4.88;;;;;;;19.63;44.55;99991.84;5052444;28;20389;-37
2021/09/21 06:55:58;;;;;;;7.72;4.80;;;;;;;19.66;44.68;99997.56;5052711;28;20061;-37
2021/09/21 06:58:23;;;;;;;7.97;4.70;;;;;;;19.92;44.04;99985.09;5052944;28;20033;-37
2021/09/21 07:00:49;;;;;;;5.75;4.82;;;;;;;19.85;44.57;99997.22;5052778;28;20025;-37
2021/09/21 07:03:14;;;;;;;9.35;4.70;;;;;;;20.47;43.01;99993.81;5052601;28;20071;-38
2021/09/21 07:05:40;;;;;;;5.72;4.60;;;;;;;20.55;42.89;100002.50;5052206;28;20106;-37
2021/09/21 07:08:05;;;;;;;7.68;4.50;;;;;;;20.29;43.20;100013.16;5052707;28;20025;-37
2021/09/21 07:10:31;;;;;;;8.93;4.60;;;;;;;20.57;42.34;100016.56;5052793;28;20392;-37
2021/09/21 07:12:57;;;;;;;7.05;5.35;;;;;;;20.56;42.97;100021.16;5052793;28;20137;-38
2021/09/21 07:15:23;;;;;;;11.27;6.15;;;;;;;21.04;41.69;100027.31;5052601;28;20033;-38
2021/09/21 07:17:49;;;;;;;8.40;4.78;;;;;;;21.29;41.59;100023.06;5053031;28;20044;-37
2021/09/21 07:20:15;;;;;;;6.35;5.13;;;;;;;21.20;41.21;100027.38;5052600;28;20031;-38
2021/09/21 07:22:40;;;;;;;5.95;4.50;;;;;;;21.36;40.44;100029.03;5052605;28;20029;-35
2021/09/21 07:25:06;;;;;;;6.00;4.45;;;;;;;21.69;40.26;100035.06;5052797;28;20028;-37
2021/09/21 07:27:32;;;;;;;6.07;4.32;;;;;;;21.94;39.45;100049.69;5052530;28;20027;-36
2021/09/21 07:29:57;;;;;;;6.28;4.88;;;;;;;22.71;38.37;100034.09;5052483;28;20052;-36
2021/09/21 07:32:23;;;;;;;8.13;5.10;;;;;;;22.92;38.05;100042.97;5052274;28;20135;-36
2021/09/21 07:34:48;;;;;;;5.32;4.22;;;;;;;23.40;37.23;100037.84;5052616;28;20029;-36
2021/09/21 07:37:14;;;;;;;6.38;4.30;;;;;;;23.22;36.61;100050.16;5052348;28;20078;-37
2021/09/21 07:39:39;;;;;;;7.95;4.10;;;;;;;22.64;37.06;100056.09;5052287;28;20032;-37
2021/09/21 07:42:05;;;;;;;9.57;4.13;;;;;;;22.32;37.75;100069.19;5052253;28;20028;-37
2021/09/21 07:44:30;;;;;;;7.85;4.43;;;;;;;21.93;38.77;100064.31;5052125;28;20033;-37
2021/09/21 07:46:58;;;;;;;8.18;4.25;;;;;;;22.15;38.83;100064.03;5052201;28;20062;-37
2021/09/21 07:49:23;;;;;;;6.85;4.55;;;;;;;22.16;39.12;100071.06;5052165;28;20459;-37
2021/09/21 07:51:49;;;;;;;6.82;4.50;;;;;;;22.63;38.42;100068.03;5052259;28;20110;-37
2021/09/21 07:54:14;;;;;;;9.27;4.50;;;;;;;23.25;37.53;100075.97;5051590;28;20033;-37
2021/09/21 07:56:40;;;;;;;8.35;4.10;;;;;;;22.91;36.88;100079.34;5052066;28;20021;-37
2021/09/21 07:59:06;;;;;;;4.50;4.00;;;;;;;22.54;36.70;100082.44;5051294;28;20465;-37
2021/09/21 08:01:31;;;;;;;6.72;3.60;;;;;;;22.58;37.04;100069.94;5051642;28;20044;-37
2021/09/21 08:03:57;;;;;;;6.38;4.03;;;;;;;23.10;35.77;100078.75;5051779;28;20029;-38
2021/09/21 08:06:23;;;;;;;5.05;3.70;;;;;;;23.37;35.28;100081.84;5051878;28;20400;-37
2021/09/21 08:08:49;;;;;;;7.25;4.22;;;;;;;23.69;35.09;100091.44;5051834;28;20040;-37
2021/09/21 08:11:14;;;;;;;5.38;3.83;;;;;;;23.42;35.45;100083.75;5051739;28;20029;-37
2021/09/21 08:13:40;;;;;;;7.22;4.18;;;;;;;24.08;35.00;100074.31;5051175;28;20424;-37
2021/09/21 08:16:06;;;;;;;11.05;5.53;;;;;;;24.51;34.12;100081.78;5051474;28;20378;-37
2021/09/21 08:18:31;;;;;;;7.80;3.67;;;;;;;23.90;34.10;100075.81;5051351;28;20017;-37
2021/09/21 08:20:57;;;;;;;6.85;3.80;;;;;;;24.47;33.63;100073.41;5051390;28;20024;-37
2021/09/21 08:23:22;;;;;;;7.10;3.40;;;;;;;24.28;32.34;100080.66;5051224;28;20111;-37
2021/09/21 08:25:48;;;;;;;8.93;3.30;;;;;;;24.58;31.64;100080.38;5051117;28;20032;-37
2021/09/21 08:28:13;;;;;;;5.65;3.00;;;;;;;24.36;32.00;100078.13;5050746;28;20036;-37
2021/09/21 08:30:39;;;;;;;3.92;3.10;;;;;;;24.74;31.55;100085.66;5051272;28;20033;-37
2021/09/21 08:33:04;;;;;;;4.13;3.00;;;;;;;24.88;31.44;100072.94;5051084;28;20064;-38
2021/09/21 08:35:29;;;;;;;4.70;3.00;;;;;;;24.81;30.83;100082.56;5051367;28;20039;-37
2021/09/21 08:37:55;;;;;;;5.68;3.08;;;;;;;24.68;30.73;100073.22;5051424;28;20449;-39
2021/09/21 08:40:21;;;;;;;3.38;2.85;;;;;;;24.85;31.00;100081.72;5051188;28;20543;-39
2021/09/21 08:42:47;;;;;;;5.38;3.33;;;;;;;24.97;30.81;100087.53;5051104;28;20029;-38
2021/09/21 08:45:12;;;;;;;8.45;3.30;;;;;;;25.02;30.33;100074.97;5050769;28;20033;-37
2021/09/21 08:47:38;;;;;;;3.72;3.13;;;;;;;24.75;31.00;100084.53;5050715;28;20448;-38
2021/09/21 08:50:05;;;;;;;5.40;3.13;;;;;;;25.24;30.35;100085.34;5050850;28;20114;-38
2021/09/21 08:52:31;;;;;;;10.65;3.72;;;;;;;25.48;29.96;100072.47;5050672;28;20061;-38
2021/09/21 08:54:56;;;;;;;7.03;4.00;;;;;;;26.17;29.40;100071.13;5050715;28;20063;-38
2021/09/21 08:57:22;;;;;;;4.32;3.00;;;;;;;25.62;29.51;100072.53;5050912;28;20473;-38
2021/09/21 08:59:52;;;;;;;6.20;3.10;;;;;;;25.99;29.17;100067.34;5049252;28;20090;-38
2021/09/21 09:02:18;;;;;;;7.95;2.80;;;;;;;25.90;29.36;100067.19;5050448;28;20044;-39
2021/09/21 09:05:03;;;;;;;3.42;2.80;;;;;;;25.43;30.49;100075.25;5050555;28;20492;-37
2021/09/21 09:07:49;;;;;;;5.90;2.88;;;;;;;25.17;30.49;100064.69;5050074;28;20025;-36
2021/09/21 09:10:15;;;;;;;12.60;8.18;;;;;;;25.32;31.35;100061.00;5048790;28;20052;-38
2021/09/21 09:12:40;;;;;;;9.43;5.97;;;;;;;25.01;30.76;100062.47;5049461;28;20043;-38
2021/09/21 09:15:21;;;;;;;7.90;4.72;;;;;;;25.00;31.18;100058.13;5049702;28;20055;-48
2021/09/21 09:18:12;;;;;;;5.03;3.08;;;;;;;25.56;30.80;100050.00;5050021;28;20116;-49
2021/09/21 09:20:39;;;;;;;4.30;3.72;;;;;;;25.52;30.95;100048.16;5046496;28;20073;-48
2021/09/21 09:23:07;;;;;;;3.83;3.00;;;;;;;26.13;29.82;100051.84;5049908;28;20397;-49
2021/09/21 09:25:39;;;;;;;4.55;2.90;;;;;;;25.81;30.58;100047.97;5049661;28;20025;-48
2021/09/21 09:28:04;;;;;;;4.63;2.90;;;;;;;26.06;30.08;100049.47;5049766;28;20025;-48
2021/09/21 09:30:30;;;;;;;3.92;3.00;;;;;;;25.87;30.12;100038.59;5049667;28;20029;-50
2021/09/21 09:32:57;;;;;;;6.78;3.20;;;;;;;26.60;29.59;100040.88;5049412;28;20025;-50
2021/09/21 09:35:27;;;;;;;3.70;2.88;;;;;;;25.81;29.61;100047.97;5049631;28;20518;-50
2021/09/21 09:37:57;;;;;;;4.82;3.10;;;;;;;25.77;30.63;100035.25;5049873;28;20020;-48
2021/09/21 09:40:22;;;;;;;4.97;3.03;;;;;;;26.47;29.39;100047.94;5050403;28;20111;-52
2021/09/21 09:42:49;;;;;;;3.38;2.85;;;;;;;26.16;29.72;100047.69;5050069;28;20040;-52
2021/09/21 09:45:15;;;;;;;4.20;3.17;;;;;;;26.21;29.73;100053.06;5049732;28;20060;-48
2021/09/21 09:47:58;;;;;;;2.90;2.53;;;;;;;25.86;30.13;100041.66;5049230;28;20113;-50
2021/09/21 09:50:29;;;;;;;5.38;2.95;;;;;;;26.17;29.74;100038.41;5049975;28;20033;-49
2021/09/21 09:53:23;;;;;;;7.13;3.05;;;;;;;26.22;29.88;100033.66;5049872;28;20032;-51
2021/09/21 09:55:56;;;;;;;8.35;2.97;;;;;;;26.08;30.06;100043.72;5048292;28;20036;-51
2021/09/21 09:58:22;;;;;;;4.32;3.22;;;;;;;26.40;29.43;100040.13;5049615;28;20416;-52
2021/09/21 10:00:54;;;;;;;6.13;3.60;;;;;;;26.60;29.21;100038.97;5049978;28;20112;-50
2021/09/21 10:03:21;;;;;;;6.90;3.33;;;;;;;26.78;29.32;100025.53;5050160;28;20029;-50
2021/09/21 10:05:46;;;;;;;3.95;2.70;;;;;;;26.69;29.45;100033.59;5049804;28;20029;-51
2021/09/21 10:08:12;;;;;;;8.05;2.90;;;;;;;26.43;29.43;100036.03;5049719;28;20109;-49
2021/09/21 10:10:39;;;;;;;3.45;2.70;;;;;;;26.61;29.60;100035.13;5050105;28;20040;-50
2021/09/21 10:13:13;;;;;;;5.13;3.10;;;;;;;26.85;28.77;100040.38;5049394;28;20140;-52
2021/09/21 10:15:40;;;;;;;2.70;2.47;;;;;;;26.66;28.47;100034.22;5048307;28;20025;-49
2021/09/21 10:18:05;;;;;;;4.45;2.40;;;;;;;27.08;28.15;100026.78;5049331;28;20029;-49
2021/09/21 10:20:36;;;;;;;2.60;2.40;;;;;;;27.61;27.95;100037.06;5047768;28;20040;-49
2021/09/21 10:23:05;;;;;;;7.32;2.83;;;;;;;27.20;28.46;100031.72;5049594;28;20049;-49
2021/09/21 10:25:32;;;;;;;3.35;2.60;;;;;;;27.50;27.62;100014.63;5052094;28;20025;-50
2021/09/21 10:27:58;;;;;;;5.88;2.67;;;;;;;27.18;27.83;100021.09;5052822;28;20512;-49
2021/09/21 10:30:25;;;;;;;4.35;2.70;;;;;;;26.98;28.33;100016.06;5053092;28;20127;-51
2021/09/21 10:32:50;;;;;;;5.28;3.13;;;;;;;27.22;28.33;100021.28;5053376;28;20032;-50
2021/09/21 10:35:18;;;;;;;5.10;2.70;;;;;;;27.41;28.05;100019.22;5053445;28;20388;-51
2021/09/21 10:37:43;;;;;;;3.53;2.50;;;;;;;27.61;27.44;100012.47;5053197;28;20017;-48
2021/09/21 10:40:09;;;;;;;3.63;2.47;;;;;;;27.48;27.66;100007.88;5035690;28;20408;-48
2021/09/21 10:42:35;;;;;;;4.05;2.50;;;;;;;27.97;26.80;100003.41;5053063;28;20025;-51
2021/09/21 10:45:02;;;;;;;4.22;2.67;;;;;;;28.05;27.01;100008.09;5053159;28;20445;-48
2021/09/21 10:47:29;;;;;;;6.68;2.50;;;;;;;28.08;26.59;100012.94;5052536;28;20486;-49
2021/09/21 10:50:16;;;;;;;4.18;2.70;;;;;;;27.67;26.79;99996.75;5052863;28;20036;-48
2021/09/21 10:52:41;;;;;;;3.65;2.58;;;;;;;27.96;26.87;100009.16;5052834;28;20033;-48
2021/09/21 10:55:12;;;;;;;4.82;2.47;;;;;;;27.69;26.61;99999.97;5052839;28;20047;-49
2021/09/21 10:57:43;;;;;;;2.83;2.53;;;;;;;27.36;27.39;100007.59;5052784;28;20025;-52
2021/09/21 11:00:12;;;;;;;4.95;2.80;;;;;;;27.34;27.45;100004.38;5052419;28;20052;-49
2021/09/21 11:02:42;;;;;;;3.28;2.67;;;;;;;27.68;26.87;99998.34;5052431;28;20028;-53
2021/09/21 11:05:16;;;;;;;3.97;2.40;;;;;;;27.93;26.08;99983.28;5052631;28;20423;-49
2021/09/21 11:07:51;;;;;;;3.13;2.42;;;;;;;27.50;26.98;99986.50;5052377;28;20028;-51
2021/09/21 11:10:18;;;;;;;3.70;2.50;;;;;;;27.19;27.06;99989.94;5052227;28;20025;-50
2021/09/21 11:12:47;;;;;;;2.90;2.60;;;;;;;27.39;27.31;99990.59;5052303;28;20512;-49
2021/09/21 11:15:13;;;;;;;3.60;2.40;;;;;;;27.22;27.21;99983.03;5052232;28;20051;-49
2021/09/21 11:17:39;;;;;;;2.58;2.30;;;;;;;27.30;26.76;99994.09;5051181;28;20449;-51
2021/09/21 11:20:05;;;;;;;3.45;2.30;;;;;;;27.90;26.06;99992.09;5052078;28;20131;-50
2021/09/21 11:22:30;;;;;;;3.40;2.30;;;;;;;27.65;26.13;99988.06;5052015;28;20038;-49
2021/09/21 11:25:03;;;;;;;3.75;2.60;;;;;;;27.96;25.83;99993.56;5052152;28;20037;-51
2021/09/21 11:27:29;;;;;;;3.88;2.40;;;;;;;27.74;26.04;99982.63;5050878;28;20025;-49
2021/09/21 11:30:04;;;;;;;3.72;2.20;;;;;;;27.81;25.85;99981.06;5051502;28;20039;-50
2021/09/21 11:32:29;;;;;;;3.42;2.35;;;;;;;28.20;25.16;99982.25;5051569;28;20017;-49